AAL9077 KLAX-KSFO
Flight info
| Callsign | AAL9077 |
|---|---|
| Flight time | N/A |
| Altitude | 36000 |
| Route | SUMMR2 STOKD SERFR SERFR4 |
| Aircraft | MD83/M-SDFGIRWY/S |
Departure
| Time | 2026-04-21 22:01 |
|---|---|
| Airport | Los Angeles International Airport (KLAX) |
Arrival
| Time | N/A |
|---|---|
| Airport | San Francisco International Airport (KSFO) |
| Time | Latitude | Longitude | Altitude | Speed | Heading |
|---|---|---|---|---|---|
| 2026-04-21 21:17 | 33.93955 | -118.40654 | 122 ft | 0 kts | 353° |
| 2026-04-21 21:47 | 33.93951 | -118.40654 | 123 ft | 3 kts | 353° |
| 2026-04-21 21:47 | 33.93926 | -118.40650 | 124 ft | 4 kts | 351° |
| 2026-04-21 21:48 | 33.93907 | -118.40640 | 123 ft | 4 kts | 306° |
| 2026-04-21 21:48 | 33.93899 | -118.40613 | 122 ft | 4 kts | 270° |
| 2026-04-21 21:48 | 33.93901 | -118.40590 | 122 ft | 1 kts | 263° |
| 2026-04-21 21:48 | 33.93901 | -118.40586 | 122 ft | 0 kts | 263° |
| 2026-04-21 21:53 | 33.93901 | -118.40587 | 126 ft | 0 kts | 263° |
| 2026-04-21 21:53 | 33.93900 | -118.40593 | 126 ft | 1 kts | 263° |
| 2026-04-21 21:53 | 33.93899 | -118.40607 | 122 ft | 2 kts | 263° |
| 2026-04-21 21:54 | 33.93895 | -118.40650 | 122 ft | 9 kts | 263° |
| 2026-04-21 21:54 | 33.93885 | -118.40739 | 124 ft | 11 kts | 263° |
| 2026-04-21 21:54 | 33.93875 | -118.40832 | 126 ft | 11 kts | 262° |
| 2026-04-21 21:54 | 33.93865 | -118.40926 | 123 ft | 11 kts | 263° |
| 2026-04-21 21:55 | 33.93855 | -118.41024 | 126 ft | 13 kts | 263° |
| 2026-04-21 21:55 | 33.93859 | -118.41138 | 122 ft | 14 kts | 303° |
| 2026-04-21 21:55 | 33.93953 | -118.41175 | 125 ft | 18 kts | 353° |
| 2026-04-21 21:55 | 33.94116 | -118.41200 | 124 ft | 23 kts | 353° |
| 2026-04-21 21:56 | 33.94269 | -118.41222 | 124 ft | 22 kts | 354° |
| 2026-04-21 21:56 | 33.94421 | -118.41243 | 124 ft | 22 kts | 352° |
| 2026-04-21 21:56 | 33.94573 | -118.41268 | 125 ft | 21 kts | 353° |
| 2026-04-21 21:56 | 33.94708 | -118.41287 | 123 ft | 17 kts | 353° |
| 2026-04-21 21:57 | 33.94795 | -118.41246 | 123 ft | 14 kts | 70° |
| 2026-04-21 21:57 | 33.94811 | -118.41125 | 126 ft | 15 kts | 83° |
| 2026-04-21 21:57 | 33.94824 | -118.40998 | 124 ft | 16 kts | 83° |
| 2026-04-21 21:57 | 33.94837 | -118.40868 | 126 ft | 16 kts | 84° |
| 2026-04-21 21:58 | 33.94851 | -118.40732 | 124 ft | 17 kts | 82° |
| 2026-04-21 21:58 | 33.94865 | -118.40592 | 126 ft | 17 kts | 83° |
| 2026-04-21 21:58 | 33.94880 | -118.40449 | 125 ft | 17 kts | 83° |
| 2026-04-21 21:58 | 33.94896 | -118.40303 | 126 ft | 18 kts | 82° |
| 2026-04-21 21:59 | 33.94909 | -118.40174 | 124 ft | 15 kts | 83° |
| 2026-04-21 21:59 | 33.94922 | -118.40050 | 126 ft | 15 kts | 83° |
| 2026-04-21 21:59 | 33.94953 | -118.39934 | 125 ft | 14 kts | 42° |
| 2026-04-21 21:59 | 33.95029 | -118.39929 | 124 ft | 9 kts | 317° |
| 2026-04-21 22:00 | 33.95036 | -118.40000 | 124 ft | 9 kts | 264° |
| 2026-04-21 22:00 | 33.95027 | -118.40101 | 126 ft | 21 kts | 263° |
| 2026-04-21 22:00 | 33.94991 | -118.40443 | 126 ft | 69 kts | 263° |
| 2026-04-21 22:00 | 33.94901 | -118.41290 | 122 ft | 132 kts | 263° |
| 2026-04-21 22:01 | 33.94786 | -118.42537 | 300 ft | 166 kts | 263° |
| 2026-04-21 22:01 | 33.94685 | -118.43910 | 1098 ft | 166 kts | 258° |
| 2026-04-21 22:01 | 33.94553 | -118.45311 | 1878 ft | 172 kts | 261° |
| 2026-04-21 22:01 | 33.94428 | -118.46773 | 2582 ft | 178 kts | 260° |
| 2026-04-21 22:02 | 33.94326 | -118.48264 | 3383 ft | 181 kts | 262° |
| 2026-04-21 22:02 | 33.94226 | -118.49871 | 3726 ft | 205 kts | 263° |
| 2026-04-21 22:02 | 33.94115 | -118.51700 | 4041 ft | 229 kts | 261° |
| 2026-04-21 22:02 | 33.93935 | -118.53669 | 4555 ft | 247 kts | 262° |
| 2026-04-21 22:03 | 33.93758 | -118.55745 | 4751 ft | 248 kts | 263° |
| 2026-04-21 22:03 | 33.93617 | -118.57845 | 4836 ft | 254 kts | 264° |
| 2026-04-21 22:03 | 33.93493 | -118.59925 | 5203 ft | 243 kts | 264° |
| 2026-04-21 22:03 | 33.93387 | -118.61975 | 5901 ft | 248 kts | 263° |
| 2026-04-21 22:04 | 33.93267 | -118.64072 | 6750 ft | 255 kts | 262° |
| 2026-04-21 22:04 | 33.93152 | -118.66214 | 7554 ft | 256 kts | 264° |
| 2026-04-21 22:04 | 33.93031 | -118.68368 | 8482 ft | 257 kts | 262° |
| 2026-04-21 22:04 | 33.92867 | -118.70468 | 9697 ft | 247 kts | 261° |
| 2026-04-21 22:05 | 33.92725 | -118.72526 | 10615 ft | 248 kts | 262° |
| 2026-04-21 22:05 | 33.92539 | -118.74689 | 10883 ft | 272 kts | 259° |
| 2026-04-21 22:05 | 33.92263 | -118.76960 | 11637 ft | 276 kts | 259° |
| 2026-04-21 22:05 | 33.91986 | -118.79361 | 11892 ft | 300 kts | 260° |
| 2026-04-21 22:06 | 33.91728 | -118.81966 | 11953 ft | 325 kts | 261° |
| 2026-04-21 22:06 | 33.91569 | -118.84739 | 12036 ft | 337 kts | 266° |
| 2026-04-21 22:06 | 33.91624 | -118.87583 | 12717 ft | 339 kts | 269° |
| 2026-04-21 22:06 | 33.91740 | -118.90391 | 13772 ft | 333 kts | 270° |
| 2026-04-21 22:07 | 33.91863 | -118.93168 | 14603 ft | 332 kts | 270° |
| 2026-04-21 22:07 | 33.91985 | -118.95951 | 15264 ft | 335 kts | 270° |
| 2026-04-21 22:07 | 33.92098 | -118.98729 | 15889 ft | 338 kts | 270° |
| 2026-04-21 22:07 | 33.92335 | -119.01547 | 16558 ft | 343 kts | 281° |
| 2026-04-21 22:08 | 33.93334 | -119.04206 | 17244 ft | 354 kts | 294° |
| 2026-04-21 22:08 | 33.94655 | -119.06731 | 17900 ft | 358 kts | 296° |
| 2026-04-21 22:08 | 33.96016 | -119.09260 | 18490 ft | 361 kts | 296° |
| 2026-04-21 22:08 | 33.97389 | -119.11798 | 19004 ft | 363 kts | 296° |
| 2026-04-21 22:09 | 33.98779 | -119.14365 | 19537 ft | 366 kts | 295° |
| 2026-04-21 22:09 | 34.00163 | -119.16951 | 20005 ft | 369 kts | 295° |
| 2026-04-21 22:09 | 34.01817 | -119.19390 | 20467 ft | 387 kts | 310° |
| 2026-04-21 22:09 | 34.03986 | -119.21395 | 21012 ft | 396 kts | 315° |
| 2026-04-21 22:10 | 34.06275 | -119.23300 | 21444 ft | 401 kts | 315° |
| 2026-04-21 22:10 | 34.08590 | -119.25208 | 21905 ft | 404 kts | 315° |
| 2026-04-21 22:10 | 34.10874 | -119.27097 | 22466 ft | 403 kts | 315° |
| 2026-04-21 22:10 | 34.13223 | -119.29053 | 22923 ft | 406 kts | 315° |
| 2026-04-21 22:11 | 34.15517 | -119.30994 | 23341 ft | 409 kts | 314° |
| 2026-04-21 22:11 | 34.17848 | -119.32993 | 23795 ft | 411 kts | 314° |
| 2026-04-21 22:11 | 34.20180 | -119.35009 | 24169 ft | 414 kts | 314° |
| 2026-04-21 22:11 | 34.22527 | -119.37047 | 24580 ft | 416 kts | 314° |
| 2026-04-21 22:12 | 34.24882 | -119.39093 | 24996 ft | 418 kts | 314° |
| 2026-04-21 22:12 | 34.27250 | -119.41155 | 25320 ft | 421 kts | 313° |
| 2026-04-21 22:12 | 34.29637 | -119.43236 | 25654 ft | 424 kts | 313° |
| 2026-04-21 22:12 | 34.32043 | -119.45327 | 26006 ft | 427 kts | 313° |
| 2026-04-21 22:13 | 34.34461 | -119.47426 | 26338 ft | 429 kts | 313° |
| 2026-04-21 22:13 | 34.36897 | -119.49541 | 26645 ft | 432 kts | 313° |
| 2026-04-21 22:13 | 34.39340 | -119.51662 | 27062 ft | 432 kts | 313° |
| 2026-04-21 22:13 | 34.41723 | -119.53838 | 27603 ft | 422 kts | 308° |
| 2026-04-21 22:14 | 34.43816 | -119.56253 | 28242 ft | 410 kts | 303° |
| 2026-04-21 22:14 | 34.45751 | -119.58700 | 28725 ft | 407 kts | 302° |
| 2026-04-21 22:14 | 34.47698 | -119.61196 | 29032 ft | 408 kts | 302° |
| 2026-04-21 22:14 | 34.49655 | -119.63672 | 29449 ft | 405 kts | 302° |
| 2026-04-21 22:15 | 34.51603 | -119.66153 | 29777 ft | 408 kts | 302° |
| 2026-04-21 22:15 | 34.53573 | -119.68653 | 30108 ft | 411 kts | 302° |
| 2026-04-21 22:15 | 34.55560 | -119.71129 | 30585 ft | 408 kts | 303° |
| 2026-04-21 22:15 | 34.57554 | -119.73556 | 31100 ft | 404 kts | 303° |
| 2026-04-21 22:16 | 34.59526 | -119.75968 | 31539 ft | 400 kts | 303° |
| 2026-04-21 22:16 | 34.61483 | -119.78352 | 31934 ft | 397 kts | 303° |
| 2026-04-21 22:16 | 34.63407 | -119.80730 | 32291 ft | 394 kts | 303° |
| 2026-04-21 22:16 | 34.65329 | -119.83106 | 32598 ft | 394 kts | 303° |
| 2026-04-21 22:17 | 34.66632 | -119.84703 | 32879 ft | 392 kts | 303° |
| 2026-04-21 22:17 | 34.68522 | -119.87063 | 33279 ft | 388 kts | 302° |
| 2026-04-21 22:17 | 34.70370 | -119.89395 | 33623 ft | 387 kts | 302° |
| 2026-04-21 22:17 | 34.72231 | -119.91700 | 33978 ft | 386 kts | 303° |
| 2026-04-21 22:18 | 34.74134 | -119.94010 | 34239 ft | 386 kts | 303° |
| 2026-04-21 22:18 | 34.76018 | -119.96330 | 34350 ft | 386 kts | 302° |
| 2026-04-21 22:18 | 34.77887 | -119.98690 | 34443 ft | 388 kts | 303° |
| 2026-04-21 22:18 | 34.79765 | -120.01054 | 34608 ft | 389 kts | 303° |
| 2026-04-21 22:19 | 34.81659 | -120.03406 | 34815 ft | 388 kts | 303° |
| 2026-04-21 22:19 | 34.83536 | -120.05753 | 35050 ft | 386 kts | 303° |
| 2026-04-21 22:19 | 34.85404 | -120.08111 | 35241 ft | 386 kts | 303° |
| 2026-04-21 22:19 | 34.87256 | -120.10424 | 35369 ft | 388 kts | 304° |
| 2026-04-21 22:20 | 34.89161 | -120.12743 | 35586 ft | 385 kts | 302° |
| 2026-04-21 22:20 | 34.90987 | -120.15098 | 35904 ft | 383 kts | 303° |
| 2026-04-21 22:20 | 34.92857 | -120.17428 | 35988 ft | 386 kts | 304° |
| 2026-04-21 22:21 | 34.96629 | -120.22054 | 36070 ft | 389 kts | 304° |
| 2026-04-21 22:21 | 35.00416 | -120.26770 | 36084 ft | 388 kts | 303° |
| 2026-04-21 22:22 | 35.04172 | -120.31469 | 36079 ft | 385 kts | 304° |
| 2026-04-21 22:22 | 35.07889 | -120.36152 | 36106 ft | 385 kts | 303° |
| 2026-04-21 22:23 | 35.11739 | -120.40781 | 36102 ft | 391 kts | 307° |
| 2026-04-21 22:23 | 35.15777 | -120.45231 | 36082 ft | 389 kts | 307° |
| 2026-04-21 22:24 | 35.19757 | -120.49648 | 36074 ft | 385 kts | 307° |
| 2026-04-21 22:24 | 35.23739 | -120.54054 | 36127 ft | 387 kts | 307° |
| 2026-04-21 22:25 | 35.27719 | -120.58517 | 36115 ft | 393 kts | 307° |
| 2026-04-21 22:25 | 35.31744 | -120.63016 | 36103 ft | 390 kts | 307° |
| 2026-04-21 22:26 | 35.35712 | -120.67521 | 36090 ft | 387 kts | 306° |
| 2026-04-21 22:26 | 35.39669 | -120.72000 | 36101 ft | 388 kts | 307° |
| 2026-04-21 22:27 | 35.43667 | -120.76511 | 36101 ft | 392 kts | 306° |
| 2026-04-21 22:27 | 35.47647 | -120.81085 | 36096 ft | 393 kts | 307° |
| 2026-04-21 22:28 | 35.51911 | -120.85342 | 36103 ft | 402 kts | 312° |
| 2026-04-21 22:28 | 35.56451 | -120.89369 | 36091 ft | 402 kts | 313° |
| 2026-04-21 22:29 | 35.60948 | -120.93466 | 36092 ft | 403 kts | 312° |
| 2026-04-21 22:29 | 35.65440 | -120.97646 | 36087 ft | 407 kts | 312° |
| 2026-04-21 22:30 | 35.69945 | -121.01881 | 36087 ft | 408 kts | 312° |
| 2026-04-21 22:30 | 35.74474 | -121.06086 | 36107 ft | 407 kts | 313° |
| 2026-04-21 22:31 | 35.78956 | -121.10270 | 36072 ft | 406 kts | 312° |
| 2026-04-21 22:31 | 35.83467 | -121.14509 | 36072 ft | 409 kts | 313° |
| 2026-04-21 22:32 | 35.88007 | -121.18758 | 36064 ft | 409 kts | 312° |
| 2026-04-21 22:32 | 35.92544 | -121.23038 | 36086 ft | 412 kts | 313° |
| 2026-04-21 22:33 | 35.97126 | -121.27355 | 36081 ft | 414 kts | 314° |
| 2026-04-21 22:33 | 36.01703 | -121.31628 | 36053 ft | 411 kts | 313° |
| 2026-04-21 22:34 | 36.06240 | -121.35877 | 36061 ft | 407 kts | 313° |
| 2026-04-21 22:34 | 36.09317 | -121.38559 | 36053 ft | 413 kts | 318° |
| 2026-04-21 22:34 | 36.13493 | -121.41792 | 35269 ft | 430 kts | 320° |
| 2026-04-21 22:35 | 36.16058 | -121.43721 | 34581 ft | 431 kts | 319° |
| 2026-04-21 22:35 | 36.18602 | -121.45672 | 33755 ft | 431 kts | 319° |
| 2026-04-21 22:35 | 36.21114 | -121.47612 | 32866 ft | 432 kts | 319° |
| 2026-04-21 22:35 | 36.23676 | -121.49574 | 31975 ft | 433 kts | 318° |
| 2026-04-21 22:36 | 36.28768 | -121.53512 | 30294 ft | 429 kts | 318° |
| 2026-04-21 22:36 | 36.31275 | -121.55500 | 29358 ft | 426 kts | 317° |
| 2026-04-21 22:36 | 36.33755 | -121.57494 | 28489 ft | 422 kts | 318° |
| 2026-04-21 22:37 | 36.36218 | -121.59446 | 27708 ft | 418 kts | 319° |
| 2026-04-21 22:37 | 36.38669 | -121.61361 | 26943 ft | 414 kts | 319° |
| 2026-04-21 22:37 | 36.41092 | -121.63265 | 26203 ft | 410 kts | 319° |
| 2026-04-21 22:37 | 36.43483 | -121.65160 | 25821 ft | 400 kts | 319° |
| 2026-04-21 22:38 | 36.45791 | -121.66943 | 25746 ft | 381 kts | 319° |
| 2026-04-21 22:38 | 36.47966 | -121.68615 | 25667 ft | 364 kts | 318° |
| 2026-04-21 22:38 | 36.50067 | -121.70256 | 25581 ft | 351 kts | 317° |
| 2026-04-21 22:38 | 36.52148 | -121.71914 | 24978 ft | 366 kts | 317° |
| 2026-04-21 22:39 | 36.54334 | -121.73708 | 24222 ft | 381 kts | 318° |
| 2026-04-21 22:39 | 36.56561 | -121.75513 | 23415 ft | 384 kts | 319° |
| 2026-04-21 22:39 | 36.58815 | -121.77319 | 22537 ft | 386 kts | 320° |
| 2026-04-21 22:39 | 36.61074 | -121.79126 | 21755 ft | 387 kts | 321° |
| 2026-04-21 22:40 | 36.63349 | -121.80927 | 20976 ft | 384 kts | 322° |
| 2026-04-21 22:40 | 36.65560 | -121.82652 | 20208 ft | 367 kts | 322° |
| 2026-04-21 22:40 | 36.67683 | -121.84304 | 19490 ft | 354 kts | 322° |
| 2026-04-21 22:40 | 36.69728 | -121.85907 | 19040 ft | 338 kts | 322° |
| 2026-04-21 22:41 | 36.71693 | -121.87453 | 18989 ft | 334 kts | 322° |
| 2026-04-21 22:41 | 36.73712 | -121.89041 | 18915 ft | 354 kts | 326° |
| 2026-04-21 22:41 | 36.76092 | -121.90210 | 18669 ft | 380 kts | 340° |
| 2026-04-21 22:41 | 36.78636 | -121.90937 | 18084 ft | 377 kts | 345° |
| 2026-04-21 22:42 | 36.81189 | -121.91565 | 17414 ft | 371 kts | 345° |
| 2026-04-21 22:42 | 36.83702 | -121.92177 | 16806 ft | 366 kts | 345° |
| 2026-04-21 22:42 | 36.86183 | -121.92790 | 16218 ft | 361 kts | 345° |
| 2026-04-21 22:42 | 36.88633 | -121.93416 | 15652 ft | 358 kts | 344° |
| 2026-04-21 22:43 | 36.91060 | -121.94062 | 15162 ft | 353 kts | 343° |
| 2026-04-21 22:43 | 36.93450 | -121.94718 | 15060 ft | 354 kts | 343° |
| 2026-04-21 22:43 | 36.95860 | -121.95420 | 14938 ft | 355 kts | 342° |
| 2026-04-21 22:43 | 36.98265 | -121.96285 | 14462 ft | 361 kts | 339° |